Terminal Aerodrome Forecast
Issued by NWS

Home | Current Version | Previous Version | Text Only | Print | Product List | Glossary On
Versions: 1 2 3 4 5 6 7 8 9 10 11 12 13 14 15 16 17 18 19 20 21 22 23 24 25 26 27 28 29 30 31 32 33 34 35 36 37 38 39 40 41 42 43
000
FTUS45 KBOU 191728
TAFBJC
TAF
KBJC 191728Z 1918/2018 VRB05KT P6SM BKN030 BKN080
     FM191900 VRB05KT P6SM BKN040 BKN080
     FM192200 16006KT P6SM BKN050 BKN100
     FM200300 VRB05KT P6SM BKN050 BKN100
     FM200600 02007KT P6SM VCSH SCT020 OVC030
      TEMPO 2008/2012 1SM -SHSN OVC015
     FM201600 VRB06KT P6SM BKN040 OVC080=

USA.gov is the U.S. government's official web portal to all federal, state and local government web resources and services.